Ashiya — JD2302 — position and weather

sailwx.info

Track history (hours):
 
Tides and Currents Weather Stations Pressure Air Temp Water Temp Dewpoint Dewpoint Depression Visibility Wind Speed Wind Dir Waves Ship Positions

Ashiya

Last reported at 2017-Nov-17 09:50 UTC. Time now 2017-Nov-18 08:30 UTC.
Position N 34°35' E 134°50'.

Length 96 m; draft 4.5 m.

Type: Cargo ship. MMSI: 431501871.

Date/timePositionNaut miles runAvg speedWind from/ knotsBaromVisibWave heightAir tempDewpointWater temp
2017-Nov-17 09:50N 34°35' E 134°50'514.9
2017-Nov-17 09:29N 34°36' E 134°56'612.7
2017-Nov-17 09:00N 34°36' E 135°03'611.7
2017-Nov-17 08:30N 34°36' E 135°10'612.6
2017-Nov-17 08:00N 34°38' E 135°18'3 6.0
2017-Nov-17 07:30N 34°41' E 135°17'0 0.0
2017-Nov-17 07:00N 34°41' E 135°17'0 0.1
2017-Nov-17 06:30N 34°41' E 135°17'2 3.4
2017-Nov-17 06:00N 34°40' E 135°15'1 1.2
2017-Nov-17 05:27N 34°39' E 135°15'0 0.0
2017-Nov-17 04:57N 34°39' E 135°15'0 0.0
2017-Nov-17 04:30N 34°39' E 135°15'0 0.5
2017-Nov-17 03:59N 34°39' E 135°15'0 0.0
2017-Nov-17 03:29N 34°39' E 135°15'0 0.0
2017-Nov-17 02:59N 34°39' E 135°15'0 0.0
2017-Nov-17 02:29N 34°39' E 135°15'0 0.0
2017-Nov-17 02:00N 34°39' E 135°15'2 4.9
2017-Nov-17 01:30N 34°41' E 135°17'0 0.0
2017-Nov-17 00:52N 34°41' E 135°17'0 0.0
2017-Nov-17 00:17N 34°41' E 135°17'0 1.2
2017-Nov-17 00:00N 34°41' E 135°16'2 3.5
2017-Nov-16 23:31N 34°40' E 135°18'2 4.1
2017-Nov-16 22:59N 34°38' E 135°19'0 0.0
2017-Nov-16 22:29N 34°38' E 135°19'0 0.1
2017-Nov-16 21:53N 34°38' E 135°19'0 0.0
2017-Nov-16 21:29N 34°38' E 135°19'0 0.0
2017-Nov-16 20:53N 34°38' E 135°19'0 0.0
2017-Nov-16 20:29N 34°38' E 135°19'0 0.3
2017-Nov-16 20:00N 34°38' E 135°19'611.4
2017-Nov-16 19:30N 34°36' E 135°13'713.8
2017-Nov-16 19:00N 34°35' E 135°04'612.3
2017-Nov-16 18:30N 34°36' E 134°57'713.9
2017-Nov-16 18:00N 34°33' E 134°49'5 0.1
2017-Nov-15 06:35N 34°36' E 134°54'212.4
2017-Nov-15 06:27N 34°36' E 134°56'510.8
2017-Nov-15 05:59N 34°37' E 135°02'511.0
2017-Nov-15 05:30N 34°36' E 135°09'611.4
2017-Nov-15 05:00N 34°38' E 135°15'2 3.5
2017-Nov-15 04:25N 34°40' E 135°14'0 0.0
2017-Nov-15 03:43N 34°40' E 135°14'0 0.0
2017-Nov-15 03:13N 34°40' E 135°14'0 0.0
2017-Nov-15 02:49N 34°40' E 135°14'0 0.3
2017-Nov-15 02:30N 34°40' E 135°15'3 5.1
2017-Nov-15 02:00N 34°39' E 135°17'2 4.5
2017-Nov-15 01:30N 34°41' E 135°17'0 0.0
2017-Nov-15 01:00N 34°41' E 135°17'0 0.8
2017-Nov-15 00:30N 34°41' E 135°17'3 5.9
2017-Nov-15 00:00N 34°38' E 135°18'510.6
2017-Nov-14 23:30N 34°36' E 135°13'612.6
2017-Nov-14 23:00N 34°35' E 135°05'611.3
2017-Nov-14 22:30N 34°37' E 134°59'611.5
2017-Nov-14 21:59N 34°34' E 134°52'23 0.5
2017-Nov-13 02:00N 34°39' E 135°19'0 0.0
2017-Nov-13 01:30N 34°39' E 135°19'0 0.0
2017-Nov-13 00:54N 34°39' E 135°19'0 0.1
2017-Nov-13 00:30N 34°39' E 135°19'2 4.3
2017-Nov-13 00:00N 34°39' E 135°16'1 2.7
2017-Nov-12 23:29N 34°39' E 135°15'1 2.4
2017-Nov-12 23:00N 34°40' E 135°15'2 3.3
2017-Nov-12 22:23N 34°41' E 135°13'0 0.0
2017-Nov-12 21:59N 34°41' E 135°13'0 0.0
2017-Nov-12 21:29N 34°41' E 135°13'0 0.0
2017-Nov-12 20:59N 34°41' E 135°13'0 0.0
2017-Nov-12 20:17N 34°41' E 135°13'0 0.0
2017-Nov-12 19:53N 34°41' E 135°13'0 0.0
2017-Nov-12 19:29N 34°41' E 135°13'0 0.0
2017-Nov-12 18:59N 34°41' E 135°13'0 0.0
2017-Nov-12 18:29N 34°41' E 135°13'0 0.0
2017-Nov-12 17:59N 34°41' E 135°13'0 0.0
2017-Nov-12 17:29N 34°41' E 135°13'0 0.0
2017-Nov-12 16:59N 34°41' E 135°13'0 0.0
2017-Nov-12 16:29N 34°41' E 135°13'0 0.0
2017-Nov-12 15:59N 34°41' E 135°13'0 0.0
2017-Nov-12 15:29N 34°41' E 135°13'0 0.0
2017-Nov-12 14:59N 34°41' E 135°13'0 0.0
2017-Nov-12 14:29N 34°41' E 135°13'0 0.0
2017-Nov-12 13:41N 34°41' E 135°13'0 0.0
2017-Nov-12 13:23N 34°41' E 135°13'0 0.0
2017-Nov-12 12:59N 34°41' E 135°13'0 0.0
2017-Nov-12 12:29N 34°41' E 135°13'0 0.0
2017-Nov-12 11:59N 34°41' E 135°13'0 0.0
2017-Nov-12 11:29N 34°41' E 135°13'0 0.0
2017-Nov-12 10:59N 34°41' E 135°13'0 0.0
2017-Nov-12 10:29N 34°41' E 135°13'0 0.0
2017-Nov-12 09:58N 34°41' E 135°13'0 0.0
2017-Nov-12 09:29N 34°41' E 135°13'0 0.0
2017-Nov-12 08:59N 34°41' E 135°13'0 0.0
2017-Nov-12 08:23N 34°41' E 135°13'0 0.0
2017-Nov-12 07:53N 34°41' E 135°13'0 0.0
2017-Nov-12 07:17N 34°41' E 135°13'0 0.0
2017-Nov-12 06:59N 34°41' E 135°13'0 0.0
2017-Nov-12 06:29N 34°41' E 135°13'0 0.0
2017-Nov-12 05:58N 34°41' E 135°13'0 0.0
2017-Nov-12 05:29N 34°41' E 135°13'0 0.0
2017-Nov-12 04:53N 34°41' E 135°13'0 0.0
2017-Nov-12 04:29N 34°41' E 135°13'0 0.0
2017-Nov-12 03:47N 34°41' E 135°13'0 0.0
2017-Nov-12 03:28N 34°41' E 135°13'0 0.0
2017-Nov-12 02:53N 34°41' E 135°13'0 0.0
2017-Nov-12 02:28N 34°41' E 135°13'0 0.0
2017-Nov-12 01:59N 34°41' E 135°13'0 0.0
2017-Nov-12 01:29N 34°41' E 135°13'0 0.0
2017-Nov-12 00:59N 34°41' E 135°13'0 0.0
2017-Nov-12 00:29N 34°41' E 135°13'0 0.0
2017-Nov-11 23:59N 34°41' E 135°13'1 2.3
2017-Nov-11 23:30N 34°41' E 135°14'4 8.1
2017-Nov-11 23:00N 34°37' E 135°14'0 0.1
2017-Nov-11 22:27N 34°37' E 135°14'0 0.1
2017-Nov-11 21:57N 34°37' E 135°14'0 0.1
2017-Nov-11 21:21N 34°37' E 135°14'0 0.0
2017-Nov-11 20:51N 34°37' E 135°14'0 0.0
2017-Nov-11 20:27N 34°37' E 135°14'0 0.0
2017-Nov-11 19:57N 34°37' E 135°14'3 7.3
2017-Nov-11 19:30N 34°36' E 135°11'611.4
2017-Nov-11 19:00N 34°35' E 135°04'510.5
2017-Nov-11 18:30N 34°36' E 134°57'611.4
2017-Nov-11 17:59N 34°34' E 134°51'1 0.0
2017-Nov-10 10:41N 34°35' E 134°50'211.5
2017-Nov-10 10:29N 34°35' E 134°53'511.4
2017-Nov-10 10:00N 34°37' E 134°59'610.9
2017-Nov-10 09:30N 34°36' E 135°06'612.8
2017-Nov-10 09:00N 34°37' E 135°13'510.5
2017-Nov-10 08:30N 34°40' E 135°18'1 2.1
2017-Nov-10 07:51N 34°41' E 135°17'0 0.0
2017-Nov-10 07:27N 34°41' E 135°17'0 0.0
2017-Nov-10 06:51N 34°41' E 135°17'0 0.0
2017-Nov-10 06:30N 34°41' E 135°17'0 0.8
2017-Nov-10 06:00N 34°41' E 135°16'2 3.7
2017-Nov-10 05:30N 34°40' E 135°14'0 0.2
2017-Nov-10 05:00N 34°40' E 135°14'0 0.0
2017-Nov-10 04:30N 34°40' E 135°14'1 2.5
2017-Nov-10 04:00N 34°39' E 135°16'3 5.4
2017-Nov-10 03:29N 34°39' E 135°19'0 0.0
2017-Nov-10 02:47N 34°39' E 135°19'0 0.2
2017-Nov-10 02:29N 34°39' E 135°19'0 0.6
2017-Nov-10 02:00N 34°39' E 135°19'3 6.9
2017-Nov-10 01:31N 34°39' E 135°15'0 0.1
2017-Nov-10 00:57N 34°39' E 135°15'0 0.5
2017-Nov-10 00:30N 34°39' E 135°15'2 4.3
2017-Nov-10 00:00N 34°41' E 135°17'0 0.0
2017-Nov-09 23:29N 34°41' E 135°17'3 6.4
2017-Nov-09 23:00N 34°39' E 135°19'0 0.4
2017-Nov-09 22:12N 34°39' E 135°19'0 0.1
2017-Nov-09 21:48N 34°39' E 135°19'0 0.1
2017-Nov-09 21:24N 34°39' E 135°19'2 5.6
2017-Nov-09 21:00N 34°37' E 135°18'612.1
2017-Nov-09 20:30N 34°35' E 135°11'613.0
2017-Nov-09 20:00N 34°36' E 135°03'713.2
2017-Nov-09 19:30N 34°35' E 134°55'713.4
2017-Nov-09 18:59N 34°32' E 134°47'5 0.1
2017-Nov-08 07:13N 34°35' E 134°52'210.4
2017-Nov-08 07:00N 34°36' E 134°55'510.7
2017-Nov-08 06:30N 34°37' E 135°01'511.1
2017-Nov-08 06:00N 34°36' E 135°08'612.6
2017-Nov-08 05:30N 34°38' E 135°15'2 3.7
2017-Nov-08 04:56N 34°40' E 135°14'0 0.0
2017-Nov-08 04:26N 34°40' E 135°14'0 0.0
2017-Nov-08 04:00N 34°40' E 135°14'3 6.1
2017-Nov-08 03:30N 34°39' E 135°18'1 1.9
2017-Nov-08 02:55N 34°39' E 135°19'0 0.1
2017-Nov-08 02:30N 34°39' E 135°19'3 6.0
2017-Nov-08 02:00N 34°41' E 135°17'0 0.0
2017-Nov-08 01:22N 34°41' E 135°17'0 0.1
2017-Nov-08 01:00N 34°41' E 135°17'0 0.3
2017-Nov-08 00:30N 34°41' E 135°17'3 5.6
2017-Nov-08 00:00N 34°39' E 135°19'0 0.0
2017-Nov-07 23:26N 34°39' E 135°19'0 0.1
2017-Nov-07 22:50N 34°39' E 135°19'0 0.1
2017-Nov-07 22:26N 34°39' E 135°19'0 0.0
2017-Nov-07 21:44N 34°39' E 135°19'0 0.1
2017-Nov-07 21:14N 34°39' E 135°19'0 0.1
2017-Nov-07 20:56N 34°39' E 135°19'0 0.0
2017-Nov-07 20:20N 34°39' E 135°19'0 0.0
2017-Nov-07 19:56N 34°39' E 135°19'4 9.2
2017-Nov-07 19:31N 34°36' E 135°15'612.8
2017-Nov-07 19:00N 34°35' E 135°08'815.2
2017-Nov-07 18:30N 34°37' E 134°59'815.8
2017-Nov-07 18:00N 34°34' E 134°50'  
Track history (hours):
 
Tides and Currents Weather Stations Pressure Air Temp Water Temp Dewpoint Dewpoint Depression Visibility Wind Speed Wind Dir Waves Ship Positions

Ashiya

Last reported at 2017-Nov-17 09:50 UTC. Time now 2017-Nov-18 08:30 UTC.
Position N 34°35' E 134°50'.

Length 96 m; draft 4.5 m.

Type: Cargo ship. MMSI: 431501871.

Date/timePositionNaut miles runAvg speedWind from/ knotsBaromVisibWave heightAir tempDewpointWater temp
2017-Nov-17 09:50N 34°35' E 134°50'514.9
2017-Nov-17 09:29N 34°36' E 134°56'612.7
2017-Nov-17 09:00N 34°36' E 135°03'611.7
2017-Nov-17 08:30N 34°36' E 135°10'612.6
2017-Nov-17 08:00N 34°38' E 135°18'3 6.0
2017-Nov-17 07:30N 34°41' E 135°17'0 0.0
2017-Nov-17 07:00N 34°41' E 135°17'0 0.1
2017-Nov-17 06:30N 34°41' E 135°17'2 3.4
2017-Nov-17 06:00N 34°40' E 135°15'1 1.2
2017-Nov-17 05:27N 34°39' E 135°15'0 0.0
2017-Nov-17 04:57N 34°39' E 135°15'0 0.0
2017-Nov-17 04:30N 34°39' E 135°15'0 0.5
2017-Nov-17 03:59N 34°39' E 135°15'0 0.0
2017-Nov-17 03:29N 34°39' E 135°15'0 0.0
2017-Nov-17 02:59N 34°39' E 135°15'0 0.0
2017-Nov-17 02:29N 34°39' E 135°15'0 0.0
2017-Nov-17 02:00N 34°39' E 135°15'2 4.9
2017-Nov-17 01:30N 34°41' E 135°17'0 0.0
2017-Nov-17 00:52N 34°41' E 135°17'0 0.0
2017-Nov-17 00:17N 34°41' E 135°17'0 1.2
2017-Nov-17 00:00N 34°41' E 135°16'2 3.5
2017-Nov-16 23:31N 34°40' E 135°18'2 4.1
2017-Nov-16 22:59N 34°38' E 135°19'0 0.0
2017-Nov-16 22:29N 34°38' E 135°19'0 0.1
2017-Nov-16 21:53N 34°38' E 135°19'0 0.0
2017-Nov-16 21:29N 34°38' E 135°19'0 0.0
2017-Nov-16 20:53N 34°38' E 135°19'0 0.0
2017-Nov-16 20:29N 34°38' E 135°19'0 0.3
2017-Nov-16 20:00N 34°38' E 135°19'611.4
2017-Nov-16 19:30N 34°36' E 135°13'713.8
2017-Nov-16 19:00N 34°35' E 135°04'612.3
2017-Nov-16 18:30N 34°36' E 134°57'713.9
2017-Nov-16 18:00N 34°33' E 134°49'5 0.1
2017-Nov-15 06:35N 34°36' E 134°54'212.4
2017-Nov-15 06:27N 34°36' E 134°56'510.8
2017-Nov-15 05:59N 34°37' E 135°02'511.0
2017-Nov-15 05:30N 34°36' E 135°09'611.4
2017-Nov-15 05:00N 34°38' E 135°15'2 3.5
2017-Nov-15 04:25N 34°40' E 135°14'0 0.0
2017-Nov-15 03:43N 34°40' E 135°14'0 0.0
2017-Nov-15 03:13N 34°40' E 135°14'0 0.0
2017-Nov-15 02:49N 34°40' E 135°14'0 0.3
2017-Nov-15 02:30N 34°40' E 135°15'3 5.1
2017-Nov-15 02:00N 34°39' E 135°17'2 4.5
2017-Nov-15 01:30N 34°41' E 135°17'0 0.0
2017-Nov-15 01:00N 34°41' E 135°17'0 0.8
2017-Nov-15 00:30N 34°41' E 135°17'3 5.9
2017-Nov-15 00:00N 34°38' E 135°18'510.6
2017-Nov-14 23:30N 34°36' E 135°13'612.6
2017-Nov-14 23:00N 34°35' E 135°05'611.3
2017-Nov-14 22:30N 34°37' E 134°59'611.5
2017-Nov-14 21:59N 34°34' E 134°52'23 0.5
2017-Nov-13 02:00N 34°39' E 135°19'0 0.0
2017-Nov-13 01:30N 34°39' E 135°19'0 0.0
2017-Nov-13 00:54N 34°39' E 135°19'0 0.1
2017-Nov-13 00:30N 34°39' E 135°19'2 4.3
2017-Nov-13 00:00N 34°39' E 135°16'1 2.7
2017-Nov-12 23:29N 34°39' E 135°15'1 2.4
2017-Nov-12 23:00N 34°40' E 135°15'2 3.3
2017-Nov-12 22:23N 34°41' E 135°13'0 0.0
2017-Nov-12 21:59N 34°41' E 135°13'0 0.0
2017-Nov-12 21:29N 34°41' E 135°13'0 0.0
2017-Nov-12 20:59N 34°41' E 135°13'0 0.0
2017-Nov-12 20:17N 34°41' E 135°13'0 0.0
2017-Nov-12 19:53N 34°41' E 135°13'0 0.0
2017-Nov-12 19:29N 34°41' E 135°13'0 0.0
2017-Nov-12 18:59N 34°41' E 135°13'0 0.0
2017-Nov-12 18:29N 34°41' E 135°13'0 0.0
2017-Nov-12 17:59N 34°41' E 135°13'0 0.0
2017-Nov-12 17:29N 34°41' E 135°13'0 0.0
2017-Nov-12 16:59N 34°41' E 135°13'0 0.0
2017-Nov-12 16:29N 34°41' E 135°13'0 0.0
2017-Nov-12 15:59N 34°41' E 135°13'0 0.0
2017-Nov-12 15:29N 34°41' E 135°13'0 0.0
2017-Nov-12 14:59N 34°41' E 135°13'0 0.0
2017-Nov-12 14:29N 34°41' E 135°13'0 0.0
2017-Nov-12 13:41N 34°41' E 135°13'0 0.0
2017-Nov-12 13:23N 34°41' E 135°13'0 0.0
2017-Nov-12 12:59N 34°41' E 135°13'0 0.0
2017-Nov-12 12:29N 34°41' E 135°13'0 0.0
2017-Nov-12 11:59N 34°41' E 135°13'0 0.0
2017-Nov-12 11:29N 34°41' E 135°13'0 0.0
2017-Nov-12 10:59N 34°41' E 135°13'0 0.0
2017-Nov-12 10:29N 34°41' E 135°13'0 0.0
2017-Nov-12 09:58N 34°41' E 135°13'0 0.0
2017-Nov-12 09:29N 34°41' E 135°13'0 0.0
2017-Nov-12 08:59N 34°41' E 135°13'0 0.0
2017-Nov-12 08:23N 34°41' E 135°13'0 0.0
2017-Nov-12 07:53N 34°41' E 135°13'0 0.0
2017-Nov-12 07:17N 34°41' E 135°13'0 0.0
2017-Nov-12 06:59N 34°41' E 135°13'0 0.0
2017-Nov-12 06:29N 34°41' E 135°13'0 0.0
2017-Nov-12 05:58N 34°41' E 135°13'0 0.0
2017-Nov-12 05:29N 34°41' E 135°13'0 0.0
2017-Nov-12 04:53N 34°41' E 135°13'0 0.0
2017-Nov-12 04:29N 34°41' E 135°13'0 0.0
2017-Nov-12 03:47N 34°41' E 135°13'0 0.0
2017-Nov-12 03:28N 34°41' E 135°13'0 0.0
2017-Nov-12 02:53N 34°41' E 135°13'0 0.0
2017-Nov-12 02:28N 34°41' E 135°13'0 0.0
2017-Nov-12 01:59N 34°41' E 135°13'0 0.0
2017-Nov-12 01:29N 34°41' E 135°13'0 0.0
2017-Nov-12 00:59N 34°41' E 135°13'0 0.0
2017-Nov-12 00:29N 34°41' E 135°13'0 0.0
2017-Nov-11 23:59N 34°41' E 135°13'1 2.3
2017-Nov-11 23:30N 34°41' E 135°14'4 8.1
2017-Nov-11 23:00N 34°37' E 135°14'0 0.1
2017-Nov-11 22:27N 34°37' E 135°14'0 0.1
2017-Nov-11 21:57N 34°37' E 135°14'0 0.1
2017-Nov-11 21:21N 34°37' E 135°14'0 0.0
2017-Nov-11 20:51N 34°37' E 135°14'0 0.0
2017-Nov-11 20:27N 34°37' E 135°14'0 0.0
2017-Nov-11 19:57N 34°37' E 135°14'3 7.3
2017-Nov-11 19:30N 34°36' E 135°11'611.4
2017-Nov-11 19:00N 34°35' E 135°04'510.5
2017-Nov-11 18:30N 34°36' E 134°57'611.4
2017-Nov-11 17:59N 34°34' E 134°51'1 0.0
2017-Nov-10 10:41N 34°35' E 134°50'211.5
2017-Nov-10 10:29N 34°35' E 134°53'511.4
2017-Nov-10 10:00N 34°37' E 134°59'610.9
2017-Nov-10 09:30N 34°36' E 135°06'612.8
2017-Nov-10 09:00N 34°37' E 135°13'510.5
2017-Nov-10 08:30N 34°40' E 135°18'1 2.1
2017-Nov-10 07:51N 34°41' E 135°17'0 0.0
2017-Nov-10 07:27N 34°41' E 135°17'0 0.0
2017-Nov-10 06:51N 34°41' E 135°17'0 0.0
2017-Nov-10 06:30N 34°41' E 135°17'0 0.8
2017-Nov-10 06:00N 34°41' E 135°16'2 3.7
2017-Nov-10 05:30N 34°40' E 135°14'0 0.2
2017-Nov-10 05:00N 34°40' E 135°14'0 0.0
2017-Nov-10 04:30N 34°40' E 135°14'1 2.5
2017-Nov-10 04:00N 34°39' E 135°16'3 5.4
2017-Nov-10 03:29N 34°39' E 135°19'0 0.0
2017-Nov-10 02:47N 34°39' E 135°19'0 0.2
2017-Nov-10 02:29N 34°39' E 135°19'0 0.6
2017-Nov-10 02:00N 34°39' E 135°19'3 6.9
2017-Nov-10 01:31N 34°39' E 135°15'0 0.1
2017-Nov-10 00:57N 34°39' E 135°15'0 0.5
2017-Nov-10 00:30N 34°39' E 135°15'2 4.3
2017-Nov-10 00:00N 34°41' E 135°17'0 0.0
2017-Nov-09 23:29N 34°41' E 135°17'3 6.4
2017-Nov-09 23:00N 34°39' E 135°19'0 0.4
2017-Nov-09 22:12N 34°39' E 135°19'0 0.1
2017-Nov-09 21:48N 34°39' E 135°19'0 0.1
2017-Nov-09 21:24N 34°39' E 135°19'2 5.6
2017-Nov-09 21:00N 34°37' E 135°18'612.1
2017-Nov-09 20:30N 34°35' E 135°11'613.0
2017-Nov-09 20:00N 34°36' E 135°03'713.2
2017-Nov-09 19:30N 34°35' E 134°55'713.4
2017-Nov-09 18:59N 34°32' E 134°47'5 0.1
2017-Nov-08 07:13N 34°35' E 134°52'210.4
2017-Nov-08 07:00N 34°36' E 134°55'510.7
2017-Nov-08 06:30N 34°37' E 135°01'511.1
2017-Nov-08 06:00N 34°36' E 135°08'612.6
2017-Nov-08 05:30N 34°38' E 135°15'2 3.7
2017-Nov-08 04:56N 34°40' E 135°14'0 0.0
2017-Nov-08 04:26N 34°40' E 135°14'0 0.0
2017-Nov-08 04:00N 34°40' E 135°14'3 6.1
2017-Nov-08 03:30N 34°39' E 135°18'1 1.9
2017-Nov-08 02:55N 34°39' E 135°19'0 0.1
2017-Nov-08 02:30N 34°39' E 135°19'3 6.0
2017-Nov-08 02:00N 34°41' E 135°17'0 0.0
2017-Nov-08 01:22N 34°41' E 135°17'0 0.1
2017-Nov-08 01:00N 34°41' E 135°17'0 0.3
2017-Nov-08 00:30N 34°41' E 135°17'3 5.6
2017-Nov-08 00:00N 34°39' E 135°19'0 0.0
2017-Nov-07 23:26N 34°39' E 135°19'0 0.1
2017-Nov-07 22:50N 34°39' E 135°19'0 0.1
2017-Nov-07 22:26N 34°39' E 135°19'0 0.0
2017-Nov-07 21:44N 34°39' E 135°19'0 0.1
2017-Nov-07 21:14N 34°39' E 135°19'0 0.1
2017-Nov-07 20:56N 34°39' E 135°19'0 0.0
2017-Nov-07 20:20N 34°39' E 135°19'0 0.0
2017-Nov-07 19:56N 34°39' E 135°19'4 9.2
2017-Nov-07 19:31N 34°36' E 135°15'612.8
2017-Nov-07 19:00N 34°35' E 135°08'815.2
2017-Nov-07 18:30N 34°37' E 134°59'815.8
2017-Nov-07 18:00N 34°34' E 134°50'  

Dump ship's entire track history